Time;durP1;ratioP1;P1;durP2;ratioP2;P2;SDS_P1;SDS_P2;PMS_P1;PMS_P2;Temp;Humidity;BMP_temperature;BMP_pressure;BME280_temperature;BME280_humidity;BME280_pressure;Samples;Min_cycle;Max_cycle;Signal;HPM_P1;HPM_P2
2023/04/18 00:01:54;;;;;;;4.70;2.70;;;;;;;8.63;100.00;100016.88;109585;1280;22295;-67
2023/04/18 00:04:22;;;;;;;6.50;2.70;;;;;;;8.63;100.00;100017.16;109572;1282;22702;-67
2023/04/18 00:06:51;;;;;;;4.80;2.70;;;;;;;8.64;100.00;100011.90;109632;1279;22199;-67
2023/04/18 00:09:19;;;;;;;5.00;2.70;;;;;;;8.62;100.00;100013.02;109629;1287;22232;-67
2023/04/18 00:11:47;;;;;;;6.70;2.80;;;;;;;8.61;100.00;100013.70;109609;1287;22274;-67
2023/04/18 00:14:16;;;;;;;8.70;2.70;;;;;;;8.61;100.00;100008.59;109632;1287;22554;-67
2023/04/18 00:16:45;;;;;;;6.20;3.00;;;;;;;8.61;100.00;100006.59;109531;1287;22212;-67
2023/04/18 00:19:14;;;;;;;7.40;3.20;;;;;;;8.57;100.00;100006.98;109617;1285;23063;-67
2023/04/18 00:21:43;;;;;;;5.80;3.00;;;;;;;8.56;100.00;100004.14;109619;1279;22408;-67
2023/04/18 00:24:12;;;;;;;5.50;3.10;;;;;;;8.53;100.00;100007.90;109607;1280;23132;-67
2023/04/18 00:26:40;;;;;;;6.70;2.80;;;;;;;8.48;100.00;100007.67;109628;1279;22352;-67
2023/04/18 00:29:08;;;;;;;6.20;3.00;;;;;;;8.46;100.00;100012.65;109621;1286;23216;-67
2023/04/18 00:31:37;;;;;;;6.70;2.90;;;;;;;8.44;100.00;100010.23;109580;1286;22382;-67
2023/04/18 00:34:05;;;;;;;7.80;3.20;;;;;;;8.42;100.00;100010.09;109636;1280;22432;-67
2023/04/18 00:36:33;;;;;;;5.00;2.80;;;;;;;8.41;100.00;100009.48;109597;1279;22585;-67
2023/04/18 00:39:01;;;;;;;6.10;2.90;;;;;;;8.40;100.00;100010.49;109602;1286;22346;-67
2023/04/18 00:41:30;;;;;;;6.10;3.30;;;;;;;8.39;100.00;100007.40;109586;1283;22239;-67
2023/04/18 00:43:58;;;;;;;6.80;3.00;;;;;;;8.37;100.00;100013.66;109599;1286;23096;-67
2023/04/18 00:46:26;;;;;;;8.60;3.10;;;;;;;8.36;100.00;100011.95;109656;1279;22276;-68
2023/04/18 00:48:55;;;;;;;7.10;3.70;;;;;;;8.33;100.00;100013.33;109633;1286;22783;-68
2023/04/18 00:51:23;;;;;;;4.70;3.00;;;;;;;8.30;100.00;100007.03;109561;1287;22515;-68
2023/04/18 00:53:51;;;;;;;7.40;3.00;;;;;;;8.25;100.00;100003.06;109400;1283;23023;-68
2023/04/18 00:56:22;;;;;;;7.80;3.50;;;;;;;8.23;100.00;100003.23;109435;1283;22367;-68
2023/04/18 00:58:50;;;;;;;6.00;3.20;;;;;;;8.21;100.00;100000.77;109625;1279;22298;-67
2023/04/18 01:01:19;;;;;;;5.90;3.10;;;;;;;8.20;100.00;99999.77;109586;1285;22428;-67
2023/04/18 01:03:47;;;;;;;7.10;3.20;;;;;;;8.19;100.00;99997.36;109593;1286;22801;-67
2023/04/18 01:06:15;;;;;;;7.00;2.90;;;;;;;8.17;100.00;99994.04;109529;1280;22344;-67
2023/04/18 01:08:44;;;;;;;7.30;3.10;;;;;;;8.17;100.00;100000.06;109598;1286;23307;-67
2023/04/18 01:11:12;;;;;;;6.40;3.20;;;;;;;8.16;100.00;99998.95;109547;1287;22282;-67
2023/04/18 01:13:41;;;;;;;6.60;3.10;;;;;;;8.17;100.00;100002.06;109539;1286;23230;-67
2023/04/18 01:16:09;;;;;;;8.10;3.40;;;;;;;8.17;100.00;100000.77;109628;1286;22368;-67
2023/04/18 01:18:39;;;;;;;7.40;3.60;;;;;;;8.18;100.00;99999.48;109554;1286;22209;-67
2023/04/18 01:21:07;;;;;;;5.80;3.10;;;;;;;8.18;100.00;99996.34;109513;1287;22935;-67
2023/04/18 01:23:35;;;;;;;7.00;3.30;;;;;;;8.17;100.00;99996.42;109606;1287;23141;-68
2023/04/18 01:26:04;;;;;;;5.80;3.40;;;;;;;8.18;100.00;99992.86;109640;1286;22840;-67
2023/04/18 01:28:35;;;;;;;9.90;3.20;;;;;;;8.20;100.00;99988.05;109469;1283;22440;-67
2023/04/18 01:31:04;;;;;;;5.70;3.10;;;;;;;8.20;100.00;99986.04;109670;1286;22297;-67
2023/04/18 01:33:32;;;;;;;6.90;3.30;;;;;;;8.18;100.00;99989.88;109645;1286;22332;-67
2023/04/18 01:36:01;;;;;;;8.10;3.40;;;;;;;8.18;100.00;99989.77;109523;1287;23055;-68
2023/04/18 01:38:31;;;;;;;6.10;3.20;;;;;;;8.16;100.00;99987.14;109604;1280;22492;-67
2023/04/18 01:41:01;;;;;;;5.50;3.00;;;;;;;8.15;100.00;99988.52;109635;1286;23080;-68
2023/04/18 01:43:29;;;;;;;6.90;3.10;;;;;;;8.14;100.00;99987.59;109530;1287;22421;-67
2023/04/18 01:45:57;;;;;;;7.70;3.20;;;;;;;8.12;100.00;99984.85;109531;1283;22295;-67
2023/04/18 01:48:26;;;;;;;7.40;3.20;;;;;;;8.10;100.00;99985.86;109479;1282;22427;-67
2023/04/18 01:50:54;;;;;;;7.40;3.40;;;;;;;8.08;100.00;99988.15;109590;1286;22549;-68
2023/04/18 01:53:23;;;;;;;6.40;3.00;;;;;;;8.04;100.00;99990.92;109617;1286;22334;-68
2023/04/18 01:55:51;;;;;;;7.10;3.60;;;;;;;8.02;100.00;99990.23;109538;1282;23703;-67
2023/04/18 01:58:22;;;;;;;5.60;3.00;;;;;;;8.00;100.00;99990.11;109592;1281;23268;-67
2023/04/18 02:00:56;;;;;;;6.80;3.20;;;;;;;7.99;100.00;99991.95;109568;1286;23008;-67
2023/04/18 02:03:24;;;;;;;7.30;3.20;;;;;;;7.96;100.00;99991.77;109617;1286;22266;-67
2023/04/18 02:05:53;;;;;;;7.10;3.60;;;;;;;7.92;100.00;99991.02;109549;1280;22380;-67
2023/04/18 02:08:21;;;;;;;7.60;3.80;;;;;;;7.90;100.00;99990.33;109569;1279;23332;-67
2023/04/18 02:10:49;;;;;;;8.70;3.40;;;;;;;7.89;100.00;99983.66;109593;1287;22413;-67
2023/04/18 02:13:18;;;;;;;7.00;3.30;;;;;;;7.88;100.00;99984.77;109633;1286;22913;-67
2023/04/18 02:15:46;;;;;;;8.20;2.90;;;;;;;7.84;100.00;99982.22;109533;1286;22379;-66
2023/04/18 02:18:16;;;;;;;5.30;2.90;;;;;;;7.82;100.00;99984.74;109598;1287;22289;-67
2023/04/18 02:20:44;;;;;;;6.30;3.30;;;;;;;7.79;100.00;99986.26;109605;1285;22425;-67
2023/04/18 02:23:12;;;;;;;5.90;2.90;;;;;;;7.77;100.00;99986.05;109670;1286;22946;-67
2023/04/18 02:25:41;;;;;;;8.80;3.80;;;;;;;7.73;100.00;99986.59;109642;1283;22395;-67
2023/04/18 02:28:09;;;;;;;4.90;3.00;;;;;;;7.70;100.00;99987.52;109628;1287;22952;-67
2023/04/18 02:30:37;;;;;;;5.50;3.20;;;;;;;7.67;100.00;99987.38;109617;1286;22352;-67
2023/04/18 02:33:06;;;;;;;6.20;3.40;;;;;;;7.65;100.00;99985.96;109664;1286;22281;-67
2023/04/18 02:35:34;;;;;;;6.10;3.10;;;;;;;7.63;100.00;99987.23;109557;1285;22335;-67
2023/04/18 02:38:03;;;;;;;7.70;3.20;;;;;;;7.61;100.00;99991.88;109490;1284;22244;-67
2023/04/18 02:40:31;;;;;;;6.90;3.10;;;;;;;7.60;100.00;99988.27;109550;1286;22191;-67
2023/04/18 02:43:00;;;;;;;8.80;3.50;;;;;;;7.59;100.00;99988.70;109556;1286;22234;-67
2023/04/18 02:45:29;;;;;;;5.00;3.10;;;;;;;7.56;100.00;99992.61;109549;1286;23008;-67
2023/04/18 02:47:58;;;;;;;6.10;3.00;;;;;;;7.55;100.00;99992.64;109584;1287;23016;-68
2023/04/18 02:50:27;;;;;;;7.80;3.00;;;;;;;7.55;100.00;99987.86;109536;1286;23369;-67
2023/04/18 02:52:56;;;;;;;6.20;3.20;;;;;;;7.51;100.00;99990.30;109567;1282;22381;-67
2023/04/18 02:55:30;;;;;;;6.60;3.40;;;;;;;7.48;100.00;99990.80;109505;1286;22866;-67
2023/04/18 02:57:59;;;;;;;6.50;3.10;;;;;;;7.46;100.00;99988.44;109631;1286;22325;-67
2023/04/18 03:00:49;;;;;;;8.40;3.70;;;;;;;7.45;100.00;99988.91;109573;1282;22338;-67
2023/04/18 03:03:37;;;;;;;7.00;3.60;;;;;;;7.44;100.00;99988.98;109671;1286;22428;-67
2023/04/18 03:06:17;;;;;;;7.00;2.80;;;;;;;7.42;100.00;99987.00;109549;1286;23294;-67
2023/04/18 03:08:46;;;;;;;7.20;3.40;;;;;;;7.39;100.00;99987.95;109546;1286;22412;-67
2023/04/18 03:11:15;;;;;;;7.70;3.20;;;;;;;7.38;100.00;99989.47;109520;1286;22382;-67
2023/04/18 03:13:43;;;;;;;9.40;3.50;;;;;;;7.36;100.00;99988.98;109510;1283;23112;-67
2023/04/18 03:16:12;;;;;;;7.80;3.60;;;;;;;7.39;100.00;99983.93;109488;1282;22877;-67
2023/04/18 03:18:42;;;;;;;8.70;3.50;;;;;;;7.38;100.00;99988.84;109552;1287;22998;-67
2023/04/18 03:21:10;;;;;;;8.60;3.10;;;;;;;7.37;100.00;99985.90;109647;1286;22392;-67
2023/04/18 03:23:39;;;;;;;6.40;3.70;;;;;;;7.38;100.00;99988.18;109496;1286;23223;-67
2023/04/18 03:26:07;;;;;;;8.80;3.70;;;;;;;7.39;100.00;99989.83;109449;1286;22356;-67
2023/04/18 03:28:36;;;;;;;5.80;3.00;;;;;;;7.40;100.00;99991.20;109499;1287;22185;-67
2023/04/18 03:31:05;;;;;;;6.50;3.40;;;;;;;7.41;100.00;99990.35;109490;1285;23231;-67
2023/04/18 03:33:35;;;;;;;7.20;3.30;;;;;;;7.43;100.00;99994.23;109526;1286;23388;-67
2023/04/18 03:36:08;;;;;;;9.20;3.50;;;;;;;7.44;100.00;99992.77;109537;1286;22265;-68
2023/04/18 03:38:39;;;;;;;9.20;3.80;;;;;;;7.46;100.00;99993.19;109560;1286;23378;-67
2023/04/18 03:41:07;;;;;;;7.10;3.60;;;;;;;7.48;100.00;99998.59;109766;1283;22340;-67
2023/04/18 03:43:37;;;;;;;8.50;3.70;;;;;;;7.50;100.00;100001.23;109735;1284;22308;-67
2023/04/18 03:46:05;;;;;;;7.20;3.50;;;;;;;7.51;100.00;99998.00;109819;1283;22205;-67
2023/04/18 03:48:35;;;;;;;9.60;3.60;;;;;;;7.50;100.00;99998.21;109740;1282;22246;-67
2023/04/18 03:51:08;;;;;;;9.30;3.90;;;;;;;7.52;100.00;99993.83;109762;1279;22461;-67
2023/04/18 03:53:36;;;;;;;7.60;4.20;;;;;;;7.51;100.00;99996.85;109795;1283;22232;-67
2023/04/18 03:56:05;;;;;;;8.10;3.60;;;;;;;7.53;100.00;100002.69;109730;1280;22333;-67
2023/04/18 03:58:50;;;;;;;8.00;3.50;;;;;;;7.56;100.00;100002.13;109689;1283;22365;-67
2023/04/18 04:01:20;;;;;;;8.30;3.90;;;;;;;7.57;100.00;100010.88;109755;1283;23325;-67
2023/04/18 04:03:50;;;;;;;5.60;3.30;;;;;;;7.58;100.00;100009.77;109797;1283;22196;-67
2023/04/18 04:06:19;;;;;;;7.80;4.10;;;;;;;7.59;100.00;100006.35;109781;1283;23028;-67
2023/04/18 04:08:48;;;;;;;6.80;3.70;;;;;;;7.66;100.00;100007.61;109828;1283;22265;-67
2023/04/18 04:11:19;;;;;;;6.70;3.40;;;;;;;7.71;100.00;100006.13;109815;1283;22208;-67
2023/04/18 04:13:48;;;;;;;7.00;4.10;;;;;;;7.72;100.00;100006.35;109725;1276;22987;-66
2023/04/18 04:16:18;;;;;;;9.20;3.80;;;;;;;7.73;100.00;100007.42;109626;1277;23180;-67
2023/04/18 04:18:48;;;;;;;6.20;3.80;;;;;;;7.77;100.00;100006.50;109671;1276;22245;-67
2023/04/18 04:21:16;;;;;;;8.90;3.90;;;;;;;7.80;100.00;100005.57;109666;1279;22480;-67
2023/04/18 04:23:50;;;;;;;8.80;3.40;;;;;;;7.81;100.00;100006.41;109739;1283;23084;-67
2023/04/18 04:26:27;;;;;;;8.30;3.60;;;;;;;7.83;100.00;100007.45;109727;1283;23365;-67
2023/04/18 04:29:02;;;;;;;8.70;3.50;;;;;;;7.83;100.00;100007.14;109742;1283;23088;-68
2023/04/18 04:31:31;;;;;;;8.00;3.40;;;;;;;7.84;100.00;100010.67;109702;1283;22676;-67
2023/04/18 04:34:00;;;;;;;8.60;3.40;;;;;;;7.84;100.00;100009.75;109813;1283;22971;-67
2023/04/18 04:36:28;;;;;;;9.20;3.80;;;;;;;7.86;100.00;100010.27;109728;1284;22217;-67
2023/04/18 04:38:58;;;;;;;8.50;3.70;;;;;;;7.89;100.00;100011.89;109725;1283;22374;-67
2023/04/18 04:41:32;;;;;;;7.80;3.60;;;;;;;7.90;100.00;100009.73;109748;1283;23123;-68
2023/04/18 04:44:00;;;;;;;11.10;4.20;;;;;;;7.90;100.00;100009.26;109699;1283;22216;-67
2023/04/18 04:46:32;;;;;;;7.90;3.80;;;;;;;7.91;100.00;100009.90;109799;1283;22323;-68
2023/04/18 04:49:03;;;;;;;7.10;3.40;;;;;;;7.92;100.00;100012.65;109819;1283;22289;-67
2023/04/18 04:51:32;;;;;;;13.10;3.80;;;;;;;7.93;100.00;100011.90;109933;1274;22957;-67
2023/04/18 04:54:00;;;;;;;7.30;3.40;;;;;;;7.96;100.00;100016.86;109920;1279;23371;-68
2023/04/18 04:56:29;;;;;;;7.40;3.30;;;;;;;8.02;100.00;100021.04;109927;1279;22206;-67
2023/04/18 04:58:57;;;;;;;6.20;3.60;;;;;;;8.08;100.00;100022.05;109931;1279;22231;-67
2023/04/18 05:01:32;;;;;;;7.30;3.30;;;;;;;8.12;100.00;100022.59;109926;1279;22368;-67
2023/04/18 05:04:00;;;;;;;7.90;3.80;;;;;;;8.14;100.00;100028.38;110028;1279;23069;-67
2023/04/18 05:06:30;;;;;;;8.30;3.50;;;;;;;8.17;100.00;100031.63;109981;1273;22436;-68
2023/04/18 05:08:59;;;;;;;9.30;3.20;;;;;;;8.26;100.00;100031.99;109996;1279;22464;-67
2023/04/18 05:11:28;;;;;;;7.40;3.60;;;;;;;8.33;100.00;100031.77;109943;1279;22239;-68
2023/04/18 05:13:56;;;;;;;8.20;3.50;;;;;;;8.37;100.00;100030.54;110020;1279;22342;-70
2023/04/18 05:16:25;;;;;;;6.90;3.70;;;;;;;8.38;100.00;100029.96;109986;1279;22222;-68
2023/04/18 05:18:53;;;;;;;7.50;3.80;;;;;;;8.40;100.00;100029.86;109943;1279;22569;-68
2023/04/18 05:21:23;;;;;;;10.90;3.90;;;;;;;8.42;100.00;100031.64;110003;1279;22420;-68
2023/04/18 05:23:52;;;;;;;8.20;3.60;;;;;;;8.45;100.00;100031.08;109992;1279;22368;-67
2023/04/18 05:26:21;;;;;;;5.40;3.40;;;;;;;8.47;100.00;100026.29;110022;1279;22272;-67
2023/04/18 05:28:49;;;;;;;9.10;3.70;;;;;;;8.47;100.00;100021.17;109931;1278;23455;-67
2023/04/18 05:31:17;;;;;;;6.90;3.50;;;;;;;8.47;100.00;100014.48;110019;1274;22408;-67
2023/04/18 05:33:45;;;;;;;8.60;3.90;;;;;;;8.47;100.00;99996.16;109997;1272;22446;-67
2023/04/18 05:36:14;;;;;;;8.80;3.90;;;;;;;8.47;100.00;100027.90;110002;1277;22230;-67
2023/04/18 05:38:42;;;;;;;8.00;4.10;;;;;;;8.48;100.00;100023.34;109974;1279;22333;-67
2023/04/18 05:41:11;;;;;;;6.80;3.30;;;;;;;8.49;100.00;100025.38;110035;1280;22706;-67
2023/04/18 05:43:39;;;;;;;11.00;4.10;;;;;;;8.50;100.00;100028.98;110032;1279;22236;-67
2023/04/18 05:46:11;;;;;;;7.60;3.70;;;;;;;8.55;100.00;100025.34;110064;1280;23346;-67
2023/04/18 05:48:39;;;;;;;8.20;3.70;;;;;;;8.63;100.00;100023.33;110006;1279;22207;-67
2023/04/18 05:51:07;;;;;;;7.30;4.00;;;;;;;8.75;100.00;100026.41;110022;1272;23399;-67
2023/04/18 05:53:38;;;;;;;8.60;3.90;;;;;;;8.91;100.00;100022.20;110032;1272;22210;-67
2023/04/18 05:56:06;;;;;;;9.10;4.10;;;;;;;9.07;100.00;100029.13;110014;1273;23055;-67
2023/04/18 05:58:34;;;;;;;8.90;4.10;;;;;;;9.20;100.00;100028.14;110005;1272;22478;-67
2023/04/18 06:01:03;;;;;;;7.90;4.00;;;;;;;9.34;100.00;100023.93;110028;1279;22467;-67
2023/04/18 06:03:31;;;;;;;9.40;4.00;;;;;;;9.48;100.00;100024.83;110069;1279;22410;-67
2023/04/18 06:06:00;;;;;;;9.00;4.30;;;;;;;9.59;100.00;100023.02;110029;1279;22691;-67
2023/04/18 06:08:28;;;;;;;8.90;4.30;;;;;;;9.72;100.00;100026.89;109924;1276;22319;-68
2023/04/18 06:10:56;;;;;;;7.10;3.90;;;;;;;9.84;100.00;100024.83;110078;1273;22447;-67
2023/04/18 06:13:24;;;;;;;13.20;7.30;;;;;;;9.92;100.00;100026.55;110110;1279;22480;-67
2023/04/18 06:15:53;;;;;;;10.00;5.10;;;;;;;10.04;100.00;100023.27;110064;1276;22277;-67
2023/04/18 06:18:21;;;;;;;11.60;6.40;;;;;;;10.15;100.00;100028.77;110039;1272;23202;-67
2023/04/18 06:20:50;;;;;;;13.90;7.70;;;;;;;10.24;100.00;100032.70;110065;1273;22413;-68
2023/04/18 06:23:18;;;;;;;10.40;5.50;;;;;;;10.33;100.00;100030.53;110047;1279;22263;-67
2023/04/18 06:25:46;;;;;;;11.20;5.20;;;;;;;10.43;100.00;100027.66;110079;1277;23635;-68
2023/04/18 06:28:16;;;;;;;9.80;4.90;;;;;;;10.54;100.00;100027.81;109941;1274;22380;-68
2023/04/18 06:30:44;;;;;;;9.60;4.50;;;;;;;10.60;100.00;100028.06;109849;1275;22565;-68
2023/04/18 06:33:13;;;;;;;10.80;4.90;;;;;;;10.63;100.00;100024.64;110089;1277;22398;-68
2023/04/18 06:35:41;;;;;;;10.40;4.80;;;;;;;10.67;100.00;100019.48;109944;1273;22417;-68
2023/04/18 06:38:10;;;;;;;10.00;5.20;;;;;;;10.71;100.00;100022.14;110121;1273;23159;-68
2023/04/18 06:40:38;;;;;;;9.50;4.60;;;;;;;10.76;100.00;100025.05;110069;1279;22192;-69
2023/04/18 06:43:07;;;;;;;8.40;5.00;;;;;;;10.82;100.00;100024.26;110135;1279;22289;-69
2023/04/18 06:45:35;;;;;;;10.80;4.80;;;;;;;10.89;100.00;100026.14;110076;1279;23535;-68
2023/04/18 06:48:03;;;;;;;8.90;4.90;;;;;;;10.95;100.00;100023.48;110099;1279;22203;-69
2023/04/18 06:50:32;;;;;;;8.30;4.70;;;;;;;11.01;100.00;100020.77;110061;1275;22297;-66
2023/04/18 06:53:01;;;;;;;10.00;5.00;;;;;;;10.99;100.00;100022.25;110079;1272;22448;-66
2023/04/18 06:55:29;;;;;;;11.30;5.00;;;;;;;11.03;100.00;100023.52;110058;1277;23196;-66
2023/04/18 06:57:59;;;;;;;15.70;6.00;;;;;;;11.05;100.00;100020.67;110113;1279;22281;-66
2023/04/18 07:00:28;;;;;;;9.20;5.10;;;;;;;11.14;100.00;100025.66;110051;1273;22219;-65
2023/04/18 07:02:56;;;;;;;13.70;5.60;;;;;;;11.19;100.00;100021.64;110023;1273;22237;-66
2023/04/18 07:05:25;;;;;;;13.30;5.70;;;;;;;11.24;100.00;100018.82;109262;1276;22272;-67
2023/04/18 07:07:53;;;;;;;10.40;4.90;;;;;;;11.28;100.00;100017.19;110025;1276;22363;-67
2023/04/18 07:10:21;;;;;;;10.30;5.30;;;;;;;11.31;100.00;100026.52;110097;1279;22222;-66
2023/04/18 07:12:50;;;;;;;9.60;5.30;;;;;;;11.34;100.00;100022.66;110123;1273;23830;-66
2023/04/18 07:15:18;;;;;;;10.90;5.10;;;;;;;11.33;100.00;100021.03;110104;1273;22172;-67
2023/04/18 07:17:46;;;;;;;9.50;5.30;;;;;;;11.36;100.00;100027.13;109998;1279;22414;-66
2023/04/18 07:20:15;;;;;;;9.40;5.00;;;;;;;11.44;100.00;100022.51;110131;1279;23449;-66
2023/04/18 07:22:43;;;;;;;11.30;5.20;;;;;;;11.51;100.00;100020.66;110111;1256;22456;-65
2023/04/18 07:25:11;;;;;;;8.90;4.70;;;;;;;11.58;100.00;100015.55;110021;1273;22892;-66
2023/04/18 07:27:39;;;;;;;9.20;5.10;;;;;;;11.62;100.00;100011.19;110075;1273;23329;-66
2023/04/18 07:30:08;;;;;;;11.70;5.10;;;;;;;11.71;100.00;100015.95;110098;1279;23119;-66
2023/04/18 07:32:36;;;;;;;10.70;4.40;;;;;;;11.81;100.00;100011.44;110107;1279;22287;-66
2023/04/18 07:35:05;;;;;;;11.40;4.90;;;;;;;11.95;100.00;100011.98;110112;1279;22443;-66
2023/04/18 07:37:33;;;;;;;11.20;4.70;;;;;;;12.05;100.00;100005.42;110368;1272;22343;-66
2023/04/18 07:40:03;;;;;;;10.80;5.30;;;;;;;12.17;100.00;100006.82;110251;1272;22314;-66
2023/04/18 07:42:31;;;;;;;11.10;5.60;;;;;;;12.31;100.00;100009.58;110393;1271;22295;-66
2023/04/18 07:45:01;;;;;;;11.70;5.40;;;;;;;12.45;100.00;100012.66;110347;1269;22410;-67
2023/04/18 07:47:29;;;;;;;10.20;5.00;;;;;;;12.59;100.00;100004.92;110389;1275;22286;-66
2023/04/18 07:50:00;;;;;;;12.00;5.00;;;;;;;12.70;100.00;100007.89;110346;1276;22290;-67
2023/04/18 07:52:28;;;;;;;10.90;4.70;;;;;;;12.81;100.00;100001.93;110386;1269;22346;-67
2023/04/18 07:54:56;;;;;;;10.70;5.10;;;;;;;12.93;100.00;100003.35;110353;1272;22339;-67
2023/04/18 07:57:24;;;;;;;9.10;4.80;;;;;;;13.17;100.00;100005.06;110367;1276;22329;-67
2023/04/18 07:59:52;;;;;;;12.20;4.60;;;;;;;13.38;100.00;99997.06;110420;1272;22167;-66
2023/04/18 08:02:21;;;;;;;8.00;3.60;;;;;;;13.53;100.00;99991.73;110422;1273;22947;-67
2023/04/18 08:04:50;;;;;;;14.80;4.80;;;;;;;13.68;100.00;99993.13;110311;1273;22323;-66
2023/04/18 08:07:19;;;;;;;5.90;3.20;;;;;;;13.93;100.00;99990.16;110381;1276;22393;-66
2023/04/18 08:09:47;;;;;;;10.60;4.00;;;;;;;14.26;100.00;99984.05;110397;1275;22279;-67
2023/04/18 08:12:16;;;;;;;10.90;4.10;;;;;;;14.58;100.00;99982.70;110374;1275;22245;-67
2023/04/18 08:14:44;;;;;;;8.80;2.80;;;;;;;14.70;100.00;99981.65;110393;1276;22441;-67
2023/04/18 08:17:12;;;;;;;8.90;3.10;;;;;;;14.75;100.00;99978.48;110378;1276;22413;-67
2023/04/18 08:19:40;;;;;;;10.40;2.90;;;;;;;14.84;100.00;99980.93;110427;1276;22428;-67
2023/04/18 08:22:09;;;;;;;9.90;3.00;;;;;;;14.94;100.00;99976.75;110367;1276;23206;-67
2023/04/18 08:24:38;;;;;;;9.40;2.90;;;;;;;15.03;100.00;99976.95;110381;1275;22216;-67
2023/04/18 08:27:06;;;;;;;6.90;3.20;;;;;;;15.05;100.00;99978.34;110358;1276;22595;-67
2023/04/18 08:29:34;;;;;;;9.50;3.00;;;;;;;15.04;100.00;99973.42;110370;1275;22417;-67
2023/04/18 08:32:05;;;;;;;9.50;3.10;;;;;;;15.14;100.00;99978.44;110359;1273;22385;-67
2023/04/18 08:34:37;;;;;;;8.50;3.20;;;;;;;15.18;100.00;99979.54;110379;1270;22765;-67
2023/04/18 08:37:06;;;;;;;11.00;3.70;;;;;;;15.20;100.00;99974.85;110384;1273;22302;-67
2023/04/18 08:39:34;;;;;;;8.80;3.20;;;;;;;15.21;100.00;99966.77;110347;1276;22258;-67
2023/04/18 08:42:02;;;;;;;7.40;3.40;;;;;;;15.13;100.00;99964.91;110402;1276;23223;-67
2023/04/18 08:44:31;;;;;;;9.10;3.30;;;;;;;15.13;100.00;99964.80;110384;1276;22466;-67
2023/04/18 08:47:00;;;;;;;11.20;3.00;;;;;;;15.23;100.00;99963.00;110421;1275;22211;-67
2023/04/18 08:49:29;;;;;;;8.40;3.20;;;;;;;15.37;100.00;99965.44;110356;1269;23594;-67
2023/04/18 08:51:57;;;;;;;11.90;3.20;;;;;;;15.51;100.00;99964.14;110410;1276;23041;-67
2023/04/18 08:54:29;;;;;;;12.20;3.50;;;;;;;15.51;100.00;99960.47;110365;1273;22244;-67
2023/04/18 08:57:07;;;;;;;9.00;3.80;;;;;;;15.51;100.00;99957.73;110267;1272;22206;-67
2023/04/18 08:59:36;;;;;;;14.20;4.20;;;;;;;15.56;100.00;99956.12;110349;1276;22169;-67
2023/04/18 09:02:09;;;;;;;9.40;3.70;;;;;;;15.57;100.00;99957.20;110441;1275;22223;-68
2023/04/18 09:04:43;;;;;;;7.60;3.40;;;;;;;15.59;100.00;99952.83;110359;1276;22268;-68
2023/04/18 09:07:15;;;;;;;8.80;3.40;;;;;;;15.68;100.00;99951.74;110388;1275;22268;-68
2023/04/18 09:09:49;;;;;;;8.50;3.30;;;;;;;15.78;100.00;99950.10;110214;1254;22723;-67
2023/04/18 09:12:25;;;;;;;7.90;3.40;;;;;;;15.77;100.00;99949.05;110393;1276;22202;-67
2023/04/18 09:14:57;;;;;;;9.40;3.60;;;;;;;15.81;100.00;99945.10;110408;1272;22281;-67
2023/04/18 09:17:33;;;;;;;9.10;3.40;;;;;;;15.79;100.00;99941.39;110214;1275;22330;-67
2023/04/18 09:20:08;;;;;;;7.60;2.40;;;;;;;15.69;100.00;99938.48;110276;1276;22202;-66
2023/04/18 09:22:47;;;;;;;10.10;2.60;;;;;;;15.62;100.00;99935.43;110439;1276;22210;-67
2023/04/18 09:25:41;;;;;;;8.90;2.20;;;;;;;15.60;100.00;99938.65;110423;1276;23232;-67
2023/04/18 09:28:26;;;;;;;;;;;;;;;15.68;100.00;99943.85;110376;1270;22491;-67
2023/04/18 09:30:56;;;;;;;5.70;1.70;;;;;;;15.59;98.65;99942.45;110373;1276;22469;-67
2023/04/18 09:33:27;;;;;;;5.50;1.90;;;;;;;15.41;97.69;99939.46;110391;1276;22273;-67
2023/04/18 09:36:16;;;;;;;7.20;2.20;;;;;;;15.28;99.38;99945.38;110342;1273;23601;-68
2023/04/18 09:38:45;;;;;;;7.70;2.70;;;;;;;15.14;97.95;99948.50;110262;1275;22219;-68
2023/04/18 09:41:15;;;;;;;8.80;2.70;;;;;;;14.92;97.82;99951.59;110386;1276;22344;-68
2023/04/18 09:43:48;;;;;;;10.10;2.20;;;;;;;14.74;99.01;99948.39;110423;1276;23359;-68
2023/04/18 09:46:16;;;;;;;8.10;2.20;;;;;;;14.62;100.00;99944.29;110379;1276;22185;-68
2023/04/18 09:48:45;;;;;;;9.40;2.20;;;;;;;14.55;100.00;99947.45;110414;1272;22430;-68
2023/04/18 09:51:14;;;;;;;9.20;2.30;;;;;;;14.53;100.00;99947.73;110408;1276;22228;-67
2023/04/18 09:53:46;;;;;;;8.30;2.10;;;;;;;14.53;100.00;99948.10;109313;1269;1438594;-67
2023/04/18 09:57:19;;;;;;;7.20;2.40;;;;;;;14.42;100.00;99944.07;104431;1305;545233;-67
2023/04/18 10:00:22;;;;;;;11.10;2.20;;;;;;;14.24;100.00;99947.59;106591;1290;23001;-67
2023/04/18 10:03:04;;;;;;;9.70;2.40;;;;;;;14.18;100.00;99943.49;107611;1290;25358;-67
2023/04/18 10:05:33;;;;;;;9.60;2.60;;;;;;;14.14;100.00;99942.77;106845;1285;22533;-67
2023/04/18 10:08:02;;;;;;;7.20;2.00;;;;;;;14.14;100.00;99943.70;106624;1290;22706;-68
2023/04/18 10:10:31;;;;;;;9.80;2.20;;;;;;;14.13;100.00;99944.48;103738;1288;4187485;-68
2023/04/18 10:13:02;;;;;;;8.90;2.60;;;;;;;14.13;100.00;99941.69;106987;1288;25449;-68
2023/04/18 10:15:30;;;;;;;9.80;2.60;;;;;;;14.14;100.00;99944.41;107024;1280;25391;-68
2023/04/18 10:18:00;;;;;;;14.50;2.60;;;;;;;14.11;100.00;99943.52;106806;1285;22558;-68
2023/04/18 10:20:33;;;;;;;11.10;2.70;;;;;;;14.11;100.00;99939.30;109794;1285;22355;-68
2023/04/18 10:23:33;;;;;;;7.30;2.50;;;;;;;14.09;100.00;99939.94;109768;1285;22242;-69
2023/04/18 10:26:03;;;;;;;11.80;2.60;;;;;;;14.08;100.00;99936.59;109756;1280;22316;-68
2023/04/18 10:28:51;;;;;;;5.00;2.00;;;;;;;14.04;100.00;99935.88;109767;1283;23095;-68
2023/04/18 10:31:25;;;;;;;8.20;2.30;;;;;;;14.01;100.00;99934.86;110272;1273;22941;-68
2023/04/18 10:33:54;;;;;;;8.50;2.20;;;;;;;13.97;100.00;99931.30;110131;1272;22399;-68
2023/04/18 10:36:33;;;;;;;9.00;2.30;;;;;;;13.88;100.00;99931.98;110285;1276;22221;-68
2023/04/18 10:39:19;;;;;;;7.70;2.30;;;;;;;13.85;100.00;99931.63;110295;1277;22422;-69
2023/04/18 10:41:48;;;;;;;10.20;2.30;;;;;;;13.88;100.00;99935.33;110164;1275;23053;-68
2023/04/18 10:44:20;;;;;;;6.80;2.00;;;;;;;13.86;100.00;99933.20;110292;1277;22342;-68
2023/04/18 10:46:51;;;;;;;10.00;2.60;;;;;;;13.87;100.00;99932.11;110268;1270;22518;-68
2023/04/18 10:49:27;;;;;;;7.50;2.20;;;;;;;13.82;100.00;99928.16;110283;1270;22327;-68
2023/04/18 10:51:59;;;;;;;6.90;2.30;;;;;;;13.78;100.00;99930.55;110281;1276;22448;-68
2023/04/18 10:54:41;;;;;;;11.40;2.40;;;;;;;13.72;100.00;99928.70;110270;1277;22220;-68
2023/04/18 10:57:10;;;;;;;6.70;2.00;;;;;;;13.69;100.00;99924.28;110225;1273;22400;-68
2023/04/18 10:59:42;;;;;;;11.30;2.70;;;;;;;13.67;100.00;99926.67;110246;1270;22228;-68
2023/04/18 11:02:23;;;;;;;10.10;2.30;;;;;;;13.64;100.00;99925.26;110248;1275;22273;-68
2023/04/18 11:04:53;;;;;;;6.80;2.10;;;;;;;13.64;100.00;99922.64;110306;1277;22461;-68
2023/04/18 11:07:50;;;;;;;10.10;2.10;;;;;;;13.68;100.00;99924.18;110259;1270;23022;-68
2023/04/18 11:10:20;;;;;;;13.20;2.30;;;;;;;13.75;100.00;99919.30;110181;1277;22997;-68
2023/04/18 11:12:49;;;;;;;12.10;2.30;;;;;;;13.76;100.00;99919.08;110250;1276;22400;-68
2023/04/18 11:15:21;;;;;;;7.60;2.30;;;;;;;13.77;100.00;99920.38;110234;1263;22281;-68
2023/04/18 11:17:58;;;;;;;7.20;1.80;;;;;;;13.79;100.00;99917.34;110247;1273;22224;-68
2023/04/18 11:20:27;;;;;;;9.60;1.80;;;;;;;13.82;100.00;99917.65;110263;1276;22744;-68
2023/04/18 11:22:56;;;;;;;11.10;2.20;;;;;;;13.82;100.00;99922.02;110279;1270;23037;-68
2023/04/18 11:25:25;;;;;;;7.70;1.90;;;;;;;13.74;100.00;99917.94;110244;1272;22375;-68
2023/04/18 11:27:54;;;;;;;9.10;1.70;;;;;;;13.57;100.00;99920.98;110276;1277;22719;-68
2023/04/18 11:30:23;;;;;;;11.20;1.70;;;;;;;13.39;100.00;99921.75;110238;1273;22365;-68
2023/04/18 11:32:51;;;;;;;8.40;2.10;;;;;;;13.27;100.00;99920.32;110248;1272;22375;-68